sensor_id;sensor_type;location;lat;lon;timestamp;pressure;altitude;pressure_sealevel;temperature;humidity
14293;BME280;62290;59.420;17.842;2023-09-07T00:02:12;102608.63;;;23.44;41.20
14293;BME280;62290;59.420;17.842;2023-09-07T00:04:40;102607.78;;;23.44;40.96
14293;BME280;62290;59.420;17.842;2023-09-07T00:07:10;102605.16;;;23.42;41.30
14293;BME280;62290;59.420;17.842;2023-09-07T00:09:39;102595.28;;;23.43;41.11
14293;BME280;62290;59.420;17.842;2023-09-07T00:12:07;102597.97;;;23.43;41.23
14293;BME280;62290;59.420;17.842;2023-09-07T00:14:35;102594.41;;;23.42;41.34
14293;BME280;62290;59.420;17.842;2023-09-07T00:17:05;102599.78;;;23.42;41.17
14293;BME280;62290;59.420;17.842;2023-09-07T00:19:33;102594.50;;;23.41;41.36
14293;BME280;62290;59.420;17.842;2023-09-07T00:22:03;102590.94;;;23.40;41.25
14293;BME280;62290;59.420;17.842;2023-09-07T00:24:32;102598.13;;;23.40;41.17
14293;BME280;62290;59.420;17.842;2023-09-07T00:27:00;102595.63;;;23.37;41.25
14293;BME280;62290;59.420;17.842;2023-09-07T00:29:31;102596.50;;;23.37;41.19
14293;BME280;62290;59.420;17.842;2023-09-07T00:31:59;102597.41;;;23.36;41.33
14293;BME280;62290;59.420;17.842;2023-09-07T00:34:29;102608.16;;;23.36;41.25
14293;BME280;62290;59.420;17.842;2023-09-07T00:36:57;102602.00;;;23.34;41.31
14293;BME280;62290;59.420;17.842;2023-09-07T00:39:25;102609.13;;;23.35;41.24
14293;BME280;62290;59.420;17.842;2023-09-07T00:41:53;102601.25;;;23.32;41.25
14293;BME280;62290;59.420;17.842;2023-09-07T00:44:21;102607.50;;;23.32;41.28
14293;BME280;62290;59.420;17.842;2023-09-07T00:46:50;102608.38;;;23.33;41.24
14293;BME280;62290;59.420;17.842;2023-09-07T00:49:18;102600.38;;;23.31;41.21
14293;BME280;62290;59.420;17.842;2023-09-07T00:51:48;102599.50;;;23.31;41.32
14293;BME280;62290;59.420;17.842;2023-09-07T00:54:15;102612.09;;;23.30;41.35
14293;BME280;62290;59.420;17.842;2023-09-07T00:56:44;102609.47;;;23.29;41.31
14293;BME280;62290;59.420;17.842;2023-09-07T00:59:13;102610.34;;;23.29;41.33
14293;BME280;62290;59.420;17.842;2023-09-07T01:01:41;102613.91;;;23.30;41.30
14293;BME280;62290;59.420;17.842;2023-09-07T01:04:10;102607.75;;;23.28;41.29
14293;BME280;62290;59.420;17.842;2023-09-07T01:06:42;102592.47;;;23.28;41.28
14293;BME280;62290;59.420;17.842;2023-09-07T01:09:19;102602.38;;;23.28;41.34
14293;BME280;62290;59.420;17.842;2023-09-07T01:11:48;102606.88;;;23.27;41.27
14293;BME280;62290;59.420;17.842;2023-09-07T01:14:16;102607.75;;;23.28;41.30
14293;BME280;62290;59.420;17.842;2023-09-07T01:16:44;102599.75;;;23.26;41.40
14293;BME280;62290;59.420;17.842;2023-09-07T01:19:12;102607.75;;;23.28;41.34
14293;BME280;62290;59.420;17.842;2023-09-07T01:21:42;102599.75;;;23.26;41.37
14293;BME280;62290;59.420;17.842;2023-09-07T01:24:11;102608.69;;;23.27;41.66
14293;BME280;62290;59.420;17.842;2023-09-07T01:26:41;102601.56;;;23.26;41.43
14293;BME280;62290;59.420;17.842;2023-09-07T01:29:09;102602.44;;;23.26;41.52
14293;BME280;62290;59.420;17.842;2023-09-07T01:31:39;102593.50;;;23.26;41.57
14293;BME280;62290;59.420;17.842;2023-09-07T01:34:07;102598.09;;;23.24;41.68
14293;BME280;62290;59.420;17.842;2023-09-07T01:36:35;102598.97;;;23.24;41.67
14293;BME280;62290;59.420;17.842;2023-09-07T01:39:05;102597.16;;;23.25;41.74
14293;BME280;62290;59.420;17.842;2023-09-07T01:41:33;102594.53;;;23.23;41.76
14293;BME280;62290;59.420;17.842;2023-09-07T01:44:01;102594.53;;;23.23;41.86
14293;BME280;62290;59.420;17.842;2023-09-07T01:46:30;102593.69;;;23.23;41.84
14293;BME280;62290;59.420;17.842;2023-09-07T01:48:58;102589.34;;;23.20;41.78
14293;BME280;62290;59.420;17.842;2023-09-07T01:51:26;102594.72;;;23.20;41.95
14293;BME280;62290;59.420;17.842;2023-09-07T01:53:54;102591.19;;;23.20;42.07
14293;BME280;62290;59.420;17.842;2023-09-07T01:56:23;102587.50;;;23.21;42.09
14293;BME280;62290;59.420;17.842;2023-09-07T01:58:52;102587.63;;;23.19;42.13
14293;BME280;62290;59.420;17.842;2023-09-07T02:01:23;102583.94;;;23.20;42.17
14293;BME280;62290;59.420;17.842;2023-09-07T02:03:51;102592.13;;;23.19;42.09
14293;BME280;62290;59.420;17.842;2023-09-07T02:06:19;102588.56;;;23.18;42.23
14293;BME280;62290;59.420;17.842;2023-09-07T02:08:48;102590.31;;;23.19;42.49
14293;BME280;62290;59.420;17.842;2023-09-07T02:11:16;102576.84;;;23.19;42.43
14293;BME280;62290;59.420;17.842;2023-09-07T02:13:47;102574.16;;;23.19;42.51
14293;BME280;62290;59.420;17.842;2023-09-07T02:16:15;102570.69;;;23.17;42.57
14293;BME280;62290;59.420;17.842;2023-09-07T02:18:45;102574.22;;;23.18;42.36
14293;BME280;62290;59.420;17.842;2023-09-07T02:21:15;102571.47;;;23.19;42.51
14293;BME280;62290;59.420;17.842;2023-09-07T02:23:43;102573.38;;;23.17;42.47
14293;BME280;62290;59.420;17.842;2023-09-07T02:26:11;102566.16;;;23.18;42.48
14293;BME280;62290;59.420;17.842;2023-09-07T02:28:39;102572.41;;;23.18;42.70
14293;BME280;62290;59.420;17.842;2023-09-07T02:31:09;102561.94;;;23.14;42.84
14293;BME280;62290;59.420;17.842;2023-09-07T02:33:37;102558.09;;;23.18;42.91
14293;BME280;62290;59.420;17.842;2023-09-07T02:36:05;102565.22;;;23.19;43.02
14293;BME280;62290;59.420;17.842;2023-09-07T02:38:33;102563.47;;;23.18;42.90
14293;BME280;62290;59.420;17.842;2023-09-07T02:41:01;102575.22;;;23.17;43.11
14293;BME280;62290;59.420;17.842;2023-09-07T02:43:30;102569.72;;;23.18;43.31
14293;BME280;62290;59.420;17.842;2023-09-07T02:45:58;102575.28;;;23.15;43.45
14293;BME280;62290;59.420;17.842;2023-09-07T02:48:28;102585.88;;;23.18;43.42
14293;BME280;62290;59.420;17.842;2023-09-07T02:50:56;102575.28;;;23.15;43.60
14293;BME280;62290;59.420;17.842;2023-09-07T02:53:26;102580.66;;;23.15;43.65
14293;BME280;62290;59.420;17.842;2023-09-07T02:55:55;102575.22;;;23.17;43.65
14293;BME280;62290;59.420;17.842;2023-09-07T02:58:23;102569.28;;;23.10;43.70
14293;BME280;62290;59.420;17.842;2023-09-07T03:00:53;102580.66;;;23.15;43.94
14293;BME280;62290;59.420;17.842;2023-09-07T03:03:24;102581.63;;;23.14;43.85
14293;BME280;62290;59.420;17.842;2023-09-07T03:05:54;102587.00;;;23.14;43.85
14293;BME280;62290;59.420;17.842;2023-09-07T03:08:22;102581.69;;;23.13;44.07
14293;BME280;62290;59.420;17.842;2023-09-07T03:10:51;102578.22;;;23.11;44.09
14293;BME280;62290;59.420;17.842;2023-09-07T03:13:19;102578.22;;;23.11;44.33
14293;BME280;62290;59.420;17.842;2023-09-07T03:15:47;102582.56;;;23.13;44.15
14293;BME280;62290;59.420;17.842;2023-09-07T03:18:15;102583.53;;;23.12;44.23
14293;BME280;62290;59.420;17.842;2023-09-07T03:20:43;102583.53;;;23.12;44.28
14293;BME280;62290;59.420;17.842;2023-09-07T03:23:13;102581.69;;;23.13;44.38
14293;BME280;62290;59.420;17.842;2023-09-07T03:25:40;102576.31;;;23.13;44.43
14293;BME280;62290;59.420;17.842;2023-09-07T03:28:09;102570.34;;;23.08;44.45
14293;BME280;62290;59.420;17.842;2023-09-07T03:30:38;102570.94;;;23.13;44.66
14293;BME280;62290;59.420;17.842;2023-09-07T03:33:06;102561.59;;;23.04;44.59
14293;BME280;62290;59.420;17.842;2023-09-07T03:35:35;102573.63;;;23.13;44.70
14293;BME280;62290;59.420;17.842;2023-09-07T03:38:04;102562.44;;;23.05;44.56
14293;BME280;62290;59.420;17.842;2023-09-07T03:40:33;102566.53;;;23.12;44.75
14293;BME280;62290;59.420;17.842;2023-09-07T03:43:01;102577.19;;;23.13;44.82
14293;BME280;62290;59.420;17.842;2023-09-07T03:45:30;102583.44;;;23.14;44.89
14293;BME280;62290;59.420;17.842;2023-09-07T03:47:59;102576.25;;;23.14;44.88
14293;BME280;62290;59.420;17.842;2023-09-07T03:50:28;102574.50;;;23.13;45.01
14293;BME280;62290;59.420;17.842;2023-09-07T03:52:56;102579.81;;;23.15;44.89
14293;BME280;62290;59.420;17.842;2023-09-07T03:55:24;102578.94;;;23.14;44.95
14293;BME280;62290;59.420;17.842;2023-09-07T03:57:54;102578.94;;;23.14;45.00
14293;BME280;62290;59.420;17.842;2023-09-07T04:00:22;102582.56;;;23.13;45.03
14293;BME280;62290;59.420;17.842;2023-09-07T04:02:50;102583.44;;;23.14;45.10
14293;BME280;62290;59.420;17.842;2023-09-07T04:05:18;102587.00;;;23.14;45.01
14293;BME280;62290;59.420;17.842;2023-09-07T04:07:46;102574.59;;;23.12;45.24
14293;BME280;62290;59.420;17.842;2023-09-07T04:10:14;102580.75;;;23.14;45.05
14293;BME280;62290;59.420;17.842;2023-09-07T04:12:42;102573.63;;;23.13;45.12
14293;BME280;62290;59.420;17.842;2023-09-07T04:15:12;102579.88;;;23.13;45.17
14293;BME280;62290;59.420;17.842;2023-09-07T04:17:40;102583.63;;;23.11;45.33
14293;BME280;62290;59.420;17.842;2023-09-07T04:20:09;102579.97;;;23.12;45.42
14293;BME280;62290;59.420;17.842;2023-09-07T04:22:39;102580.84;;;23.12;45.20
14293;BME280;62290;59.420;17.842;2023-09-07T04:25:07;102562.44;;;23.05;45.22
14293;BME280;62290;59.420;17.842;2023-09-07T04:27:35;102580.84;;;23.12;45.30
14293;BME280;62290;59.420;17.842;2023-09-07T04:30:06;102577.34;;;23.10;45.32
14293;BME280;62290;59.420;17.842;2023-09-07T04:32:37;102585.25;;;23.13;45.35
14293;BME280;62290;59.420;17.842;2023-09-07T04:35:06;102583.44;;;23.14;45.48
14293;BME280;62290;59.420;17.842;2023-09-07T04:37:35;102582.56;;;23.13;45.43
14293;BME280;62290;59.420;17.842;2023-09-07T04:40:06;102584.31;;;23.14;45.59
14293;BME280;62290;59.420;17.842;2023-09-07T04:42:34;102578.94;;;23.14;45.53
14293;BME280;62290;59.420;17.842;2023-09-07T04:45:02;102573.56;;;23.14;45.52
14293;BME280;62290;59.420;17.842;2023-09-07T04:47:31;102578.84;;;23.16;45.58
14293;BME280;62290;59.420;17.842;2023-09-07T04:50:01;102576.09;;;23.17;45.66
14293;BME280;62290;59.420;17.842;2023-09-07T04:52:30;102574.34;;;23.16;45.75
14293;BME280;62290;59.420;17.842;2023-09-07T04:54:58;102572.53;;;23.17;45.79
14293;BME280;62290;59.420;17.842;2023-09-07T04:57:27;102574.22;;;23.18;45.93
14293;BME280;62290;59.420;17.842;2023-09-07T04:59:54;102574.22;;;23.18;45.93
14293;BME280;62290;59.420;17.842;2023-09-07T05:02:22;102567.91;;;23.19;45.94
14293;BME280;62290;59.420;17.842;2023-09-07T05:04:50;102577.72;;;23.20;45.97
14293;BME280;62290;59.420;17.842;2023-09-07T05:07:20;102578.50;;;23.22;45.98
14293;BME280;62290;59.420;17.842;2023-09-07T05:09:48;102579.44;;;23.21;46.04
14293;BME280;62290;59.420;17.842;2023-09-07T05:12:16;102574.94;;;23.21;46.17
14293;BME280;62290;59.420;17.842;2023-09-07T05:14:46;102576.75;;;23.21;46.24
14293;BME280;62290;59.420;17.842;2023-09-07T05:17:14;102577.72;;;23.20;46.22
14293;BME280;62290;59.420;17.842;2023-09-07T05:19:42;102573.13;;;23.22;46.46
14293;BME280;62290;59.420;17.842;2023-09-07T05:22:10;102580.25;;;23.23;46.85
14293;BME280;62290;59.420;17.842;2023-09-07T05:24:40;102553.84;;;23.14;47.72
14293;BME280;62290;59.420;17.842;2023-09-07T05:27:08;102577.19;;;23.29;48.27
14293;BME280;62290;59.420;17.842;2023-09-07T05:29:37;102585.00;;;23.33;48.40
14293;BME280;62290;59.420;17.842;2023-09-07T05:32:05;102586.63;;;23.36;48.20
14293;BME280;62290;59.420;17.842;2023-09-07T05:34:34;102583.03;;;23.37;48.12
14293;BME280;62290;59.420;17.842;2023-09-07T05:37:02;102588.34;;;23.39;48.29
14293;BME280;62290;59.420;17.842;2023-09-07T05:39:30;102581.13;;;23.39;48.39
14293;BME280;62290;59.420;17.842;2023-09-07T05:41:59;102569.41;;;23.40;48.56
14293;BME280;62290;59.420;17.842;2023-09-07T05:44:27;102575.56;;;23.42;48.80
14293;BME280;62290;59.420;17.842;2023-09-07T05:46:55;102572.88;;;23.42;48.79
14293;BME280;62290;59.420;17.842;2023-09-07T05:49:25;102568.47;;;23.41;48.84
14293;BME280;62290;59.420;17.842;2023-09-07T05:51:54;102575.50;;;23.44;49.15
14293;BME280;62290;59.420;17.842;2023-09-07T05:54:23;102580.78;;;23.45;49.33
14293;BME280;62290;59.420;17.842;2023-09-07T05:56:51;102572.69;;;23.45;49.40
14293;BME280;62290;59.420;17.842;2023-09-07T05:59:21;102577.03;;;23.48;49.51
14293;BME280;62290;59.420;17.842;2023-09-07T06:01:49;102584.16;;;23.49;49.57
14293;BME280;62290;59.420;17.842;2023-09-07T06:04:17;102590.41;;;23.49;49.85
14293;BME280;62290;59.420;17.842;2023-09-07T06:06:46;102585.88;;;23.50;49.93
14293;BME280;62290;59.420;17.842;2023-09-07T06:09:15;102587.69;;;23.49;49.79
14293;BME280;62290;59.420;17.842;2023-09-07T06:11:43;102583.28;;;23.48;49.86
14293;BME280;62290;59.420;17.842;2023-09-07T06:14:11;102582.31;;;23.49;49.83
14293;BME280;62290;59.420;17.842;2023-09-07T06:16:40;102589.56;;;23.49;49.96
14293;BME280;62290;59.420;17.842;2023-09-07T06:19:09;102595.78;;;23.49;49.96
14293;BME280;62290;59.420;17.842;2023-09-07T06:21:37;102588.69;;;23.48;49.73
14293;BME280;62290;59.420;17.842;2023-09-07T06:24:05;102581.53;;;23.47;49.64
14293;BME280;62290;59.420;17.842;2023-09-07T06:26:34;102582.59;;;23.45;49.85
14293;BME280;62290;59.420;17.842;2023-09-07T06:29:03;102591.53;;;23.45;49.85
14293;BME280;62290;59.420;17.842;2023-09-07T06:31:31;102586.25;;;23.44;49.80
14293;BME280;62290;59.420;17.842;2023-09-07T06:34:01;102587.09;;;23.44;49.80
14293;BME280;62290;59.420;17.842;2023-09-07T06:36:29;102581.72;;;23.44;49.83
14293;BME280;62290;59.420;17.842;2023-09-07T06:39:13;102597.97;;;23.43;49.89
14293;BME280;62290;59.420;17.842;2023-09-07T06:41:45;102595.28;;;23.43;49.88
14293;BME280;62290;59.420;17.842;2023-09-07T06:44:15;102595.38;;;23.41;49.84
14293;BME280;62290;59.420;17.842;2023-09-07T06:46:44;102590.00;;;23.41;49.84
14293;BME280;62290;59.420;17.842;2023-09-07T06:49:14;102585.56;;;23.40;50.00
14293;BME280;62290;59.420;17.842;2023-09-07T06:51:42;102588.25;;;23.40;50.08
14293;BME280;62290;59.420;17.842;2023-09-07T06:54:10;102581.13;;;23.39;50.03
14293;BME280;62290;59.420;17.842;2023-09-07T06:56:40;102588.34;;;23.39;50.18
14293;BME280;62290;59.420;17.842;2023-09-07T06:59:08;102585.66;;;23.39;50.26
14293;BME280;62290;59.420;17.842;2023-09-07T07:01:36;102584.69;;;23.40;50.26
14293;BME280;62290;59.420;17.842;2023-09-07T07:04:05;102583.03;;;23.37;50.28
14293;BME280;62290;59.420;17.842;2023-09-07T07:06:34;102594.69;;;23.38;50.43
14293;BME280;62290;59.420;17.842;2023-09-07T07:09:03;102582.97;;;23.39;50.40
14293;BME280;62290;59.420;17.842;2023-09-07T07:11:31;102584.78;;;23.38;50.53
14293;BME280;62290;59.420;17.842;2023-09-07T07:13:59;102584.78;;;23.38;50.45
14293;BME280;62290;59.420;17.842;2023-09-07T07:16:27;102587.47;;;23.38;50.63
14293;BME280;62290;59.420;17.842;2023-09-07T07:18:55;102586.50;;;23.39;50.58
14293;BME280;62290;59.420;17.842;2023-09-07T07:21:23;102585.56;;;23.40;50.59
14293;BME280;62290;59.420;17.842;2023-09-07T07:23:53;102589.19;;;23.39;50.54
14293;BME280;62290;59.420;17.842;2023-09-07T07:26:22;102586.50;;;23.39;50.68
14293;BME280;62290;59.420;17.842;2023-09-07T07:28:50;102581.91;;;23.41;50.70
14293;BME280;62290;59.420;17.842;2023-09-07T07:31:18;102582.75;;;23.42;50.77
14293;BME280;62290;59.420;17.842;2023-09-07T07:33:46;102585.44;;;23.42;50.75
14293;BME280;62290;59.420;17.842;2023-09-07T07:36:16;102577.31;;;23.43;50.81
14293;BME280;62290;59.420;17.842;2023-09-07T07:38:44;102584.50;;;23.43;50.60
14293;BME280;62290;59.420;17.842;2023-09-07T07:41:13;102580.78;;;23.45;50.52
14293;BME280;62290;59.420;17.842;2023-09-07T07:43:41;102582.59;;;23.45;50.56
14293;BME280;62290;59.420;17.842;2023-09-07T07:46:09;102575.41;;;23.45;50.63
14293;BME280;62290;59.420;17.842;2023-09-07T07:48:38;102572.59;;;23.47;50.51
14293;BME280;62290;59.420;17.842;2023-09-07T07:51:06;102571.66;;;23.48;50.55
14293;BME280;62290;59.420;17.842;2023-09-07T07:53:40;102579.63;;;23.49;50.46
14293;BME280;62290;59.420;17.842;2023-09-07T07:56:15;102573.19;;;23.52;50.42
14293;BME280;62290;59.420;17.842;2023-09-07T07:58:46;102575.06;;;23.51;50.44
14293;BME280;62290;59.420;17.842;2023-09-07T08:01:15;102579.38;;;23.54;50.29
14293;BME280;62290;59.420;17.842;2023-09-07T08:03:44;102569.38;;;23.56;50.29
14293;BME280;62290;59.420;17.842;2023-09-07T08:06:12;102576.41;;;23.58;50.41
14293;BME280;62290;59.420;17.842;2023-09-07T08:08:41;102574.66;;;23.57;50.44
14293;BME280;62290;59.420;17.842;2023-09-07T08:11:09;102569.22;;;23.59;50.43
14293;BME280;62290;59.420;17.842;2023-09-07T08:13:40;102574.44;;;23.62;50.43
14293;BME280;62290;59.420;17.842;2023-09-07T08:16:11;102580.59;;;23.64;50.37
14293;BME280;62290;59.420;17.842;2023-09-07T08:18:41;102569.88;;;23.62;50.29
14293;BME280;62290;59.420;17.842;2023-09-07T08:21:10;102574.16;;;23.66;50.41
14293;BME280;62290;59.420;17.842;2023-09-07T08:23:38;102574.03;;;23.68;50.30
14293;BME280;62290;59.420;17.842;2023-09-07T08:26:07;102557.88;;;23.68;50.31
14293;BME280;62290;59.420;17.842;2023-09-07T08:28:38;102563.09;;;23.71;50.09
14293;BME280;62290;59.420;17.842;2023-09-07T08:31:07;102556.84;;;23.70;50.05
14293;BME280;62290;59.420;17.842;2023-09-07T08:33:37;102567.97;;;23.80;50.04
14293;BME280;62290;59.420;17.842;2023-09-07T08:36:07;102570.44;;;23.83;49.89
14293;BME280;62290;59.420;17.842;2023-09-07T08:38:36;102563.94;;;23.87;49.72
14293;BME280;62290;59.420;17.842;2023-09-07T08:41:05;102565.47;;;23.91;49.59
14293;BME280;62290;59.420;17.842;2023-09-07T08:43:34;102569.81;;;23.93;49.64
14293;BME280;62290;59.420;17.842;2023-09-07T08:46:12;102563.19;;;23.99;49.51
14293;BME280;62290;59.420;17.842;2023-09-07T08:48:42;102555.97;;;24.00;49.35
14293;BME280;62290;59.420;17.842;2023-09-07T08:51:10;102555.03;;;24.01;49.11
14293;BME280;62290;59.420;17.842;2023-09-07T08:53:40;102564.75;;;24.03;48.94
14293;BME280;62290;59.420;17.842;2023-09-07T08:56:13;102555.69;;;24.04;49.00
14293;BME280;62290;59.420;17.842;2023-09-07T08:58:42;102556.56;;;24.05;48.80
14293;BME280;62290;59.420;17.842;2023-09-07T09:01:13;102557.31;;;24.07;48.80
14293;BME280;62290;59.420;17.842;2023-09-07T09:03:41;102557.31;;;24.07;48.32
14293;BME280;62290;59.420;17.842;2023-09-07T09:06:11;102561.00;;;24.06;48.55
14293;BME280;62290;59.420;17.842;2023-09-07T09:08:43;102553.78;;;24.06;48.44
14293;BME280;62290;59.420;17.842;2023-09-07T09:11:11;102547.59;;;24.04;48.28
14293;BME280;62290;59.420;17.842;2023-09-07T09:13:40;102546.78;;;24.04;48.25
14293;BME280;62290;59.420;17.842;2023-09-07T09:16:09;102557.53;;;24.04;48.00
14293;BME280;62290;59.420;17.842;2023-09-07T09:18:46;102554.84;;;24.04;48.17
14293;BME280;62290;59.420;17.842;2023-09-07T09:21:15;102548.66;;;24.02;48.17
14293;BME280;62290;59.420;17.842;2023-09-07T09:23:43;102554.94;;;24.02;48.07
14293;BME280;62290;59.420;17.842;2023-09-07T09:26:11;102547.81;;;24.01;47.85
14293;BME280;62290;59.420;17.842;2023-09-07T09:28:40;102551.34;;;24.02;47.98
14293;BME280;62290;59.420;17.842;2023-09-07T09:31:08;102543.28;;;24.02;47.60
14293;BME280;62290;59.420;17.842;2023-09-07T09:33:41;102529.22;;;23.96;47.61
14293;BME280;62290;59.420;17.842;2023-09-07T09:36:09;102541.56;;;24.01;47.60
14293;BME280;62290;59.420;17.842;2023-09-07T09:38:37;102549.66;;;24.01;47.60
14293;BME280;62290;59.420;17.842;2023-09-07T09:41:06;102534.44;;;24.00;47.81
14293;BME280;62290;59.420;17.842;2023-09-07T09:43:35;102536.19;;;24.01;47.69
14293;BME280;62290;59.420;17.842;2023-09-07T09:46:03;102532.50;;;24.02;47.72
14293;BME280;62290;59.420;17.842;2023-09-07T09:48:35;102525.28;;;24.02;47.91
14293;BME280;62290;59.420;17.842;2023-09-07T09:51:07;102536.94;;;24.03;47.90
14293;BME280;62290;59.420;17.842;2023-09-07T09:53:35;102532.44;;;24.03;47.59
14293;BME280;62290;59.420;17.842;2023-09-07T09:56:04;102537.13;;;24.00;47.62
14293;BME280;62290;59.420;17.842;2023-09-07T09:58:32;102533.38;;;24.02;47.42
14293;BME280;62290;59.420;17.842;2023-09-07T10:01:01;102531.75;;;24.00;47.38
14293;BME280;62290;59.420;17.842;2023-09-07T10:03:33;102523.66;;;24.00;47.53
14293;BME280;62290;59.420;17.842;2023-09-07T10:06:10;102520.00;;;24.01;47.43
14293;BME280;62290;59.420;17.842;2023-09-07T10:08:38;102519.22;;;23.98;47.22
14293;BME280;62290;59.420;17.842;2023-09-07T10:11:08;102524.59;;;23.98;47.64
14293;BME280;62290;59.420;17.842;2023-09-07T10:13:36;102522.88;;;23.98;47.44
14293;BME280;62290;59.420;17.842;2023-09-07T10:16:05;102527.41;;;23.97;47.61
14293;BME280;62290;59.420;17.842;2023-09-07T10:18:36;102528.28;;;23.98;47.45
14293;BME280;62290;59.420;17.842;2023-09-07T10:21:05;102489.94;;;23.78;47.30
14293;BME280;62290;59.420;17.842;2023-09-07T10:23:39;102529.16;;;23.98;47.18
14293;BME280;62290;59.420;17.842;2023-09-07T10:26:12;102527.41;;;23.97;47.40
14293;BME280;62290;59.420;17.842;2023-09-07T10:31:13;102498.84;;;23.94;47.56
14293;BME280;62290;59.420;17.842;2023-09-07T10:33:42;102511.13;;;23.98;47.49
14293;BME280;62290;59.420;17.842;2023-09-07T10:36:21;102512.00;;;23.99;47.46
14293;BME280;62290;59.420;17.842;2023-09-07T10:38:51;102499.41;;;24.00;47.35
14293;BME280;62290;59.420;17.842;2023-09-07T10:41:20;102493.16;;;23.99;47.45
14293;BME280;62290;59.420;17.842;2023-09-07T10:43:49;102494.97;;;23.98;47.55
14293;BME280;62290;59.420;17.842;2023-09-07T10:46:18;102502.03;;;24.01;47.51
14293;BME280;62290;59.420;17.842;2023-09-07T10:48:49;102499.53;;;23.98;47.40
14293;BME280;62290;59.420;17.842;2023-09-07T10:51:18;102498.47;;;24.01;47.44
14293;BME280;62290;59.420;17.842;2023-09-07T10:53:46;102501.94;;;24.03;47.41
14293;BME280;62290;59.420;17.842;2023-09-07T10:56:15;102495.66;;;24.02;47.38
14293;BME280;62290;59.420;17.842;2023-09-07T10:58:43;102492.09;;;24.02;47.65
14293;BME280;62290;59.420;17.842;2023-09-07T11:01:12;102485.75;;;24.03;47.38
14293;BME280;62290;59.420;17.842;2023-09-07T11:03:43;102475.09;;;24.01;47.53
14293;BME280;62290;59.420;17.842;2023-09-07T11:06:14;102477.56;;;24.04;47.33
14293;BME280;62290;59.420;17.842;2023-09-07T11:08:43;102482.97;;;24.04;47.49
14293;BME280;62290;59.420;17.842;2023-09-07T11:11:11;102485.75;;;24.03;47.64
14293;BME280;62290;59.420;17.842;2023-09-07T11:13:42;102475.75;;;24.05;47.48
14293;BME280;62290;59.420;17.842;2023-09-07T11:16:10;102482.13;;;24.04;47.46
14293;BME280;62290;59.420;17.842;2023-09-07T11:18:39;102473.16;;;24.03;47.18
14293;BME280;62290;59.420;17.842;2023-09-07T11:21:08;102468.72;;;24.02;47.40
14293;BME280;62290;59.420;17.842;2023-09-07T11:23:37;102475.75;;;24.05;47.09
14293;BME280;62290;59.420;17.842;2023-09-07T11:26:07;102469.50;;;24.04;47.30
14293;BME280;62290;59.420;17.842;2023-09-07T11:28:35;102467.78;;;24.03;47.37
14293;BME280;62290;59.420;17.842;2023-09-07T11:31:07;102464.09;;;24.04;47.31
14293;BME280;62290;59.420;17.842;2023-09-07T11:33:36;102471.25;;;24.05;47.23
14293;BME280;62290;59.420;17.842;2023-09-07T11:36:05;102471.44;;;24.02;47.07
14293;BME280;62290;59.420;17.842;2023-09-07T11:38:35;102463.28;;;24.04;47.19
14293;BME280;62290;59.420;17.842;2023-09-07T11:41:04;102461.53;;;24.03;47.06
14293;BME280;62290;59.420;17.842;2023-09-07T11:43:32;102458.66;;;24.06;46.99
14293;BME280;62290;59.420;17.842;2023-09-07T11:46:01;102450.47;;;24.07;46.91
14293;BME280;62290;59.420;17.842;2023-09-07T11:48:32;102446.84;;;24.08;46.90
14293;BME280;62290;59.420;17.842;2023-09-07T11:51:00;102440.47;;;24.09;46.93
14293;BME280;62290;59.420;17.842;2023-09-07T11:53:28;102434.13;;;24.10;47.01
14293;BME280;62290;59.420;17.842;2023-09-07T11:55:58;102439.41;;;24.12;47.00
14293;BME280;62290;59.420;17.842;2023-09-07T11:58:25;102428.88;;;24.09;46.88
14293;BME280;62290;59.420;17.842;2023-09-07T12:00:56;102425.00;;;24.13;46.95
14293;BME280;62290;59.420;17.842;2023-09-07T12:03:24;102430.50;;;24.11;46.74
14293;BME280;62290;59.420;17.842;2023-09-07T12:05:54;102426.75;;;24.14;46.78
14293;BME280;62290;59.420;17.842;2023-09-07T12:08:22;102431.06;;;24.16;46.67
14293;BME280;62290;59.420;17.842;2023-09-07T12:10:50;102423.00;;;24.16;46.84
14293;BME280;62290;59.420;17.842;2023-09-07T12:13:18;102421.16;;;24.17;46.62
14293;BME280;62290;59.420;17.842;2023-09-07T12:15:46;102417.50;;;24.18;46.99
14293;BME280;62290;59.420;17.842;2023-09-07T12:18:14;102417.50;;;24.18;46.84
14293;BME280;62290;59.420;17.842;2023-09-07T12:20:43;102424.63;;;24.19;46.76
14293;BME280;62290;59.420;17.842;2023-09-07T12:23:12;102424.63;;;24.19;46.53
14293;BME280;62290;59.420;17.842;2023-09-07T12:25:40;102415.56;;;24.20;46.71
14293;BME280;62290;59.420;17.842;2023-09-07T12:28:08;102413.75;;;24.20;46.55
14293;BME280;62290;59.420;17.842;2023-09-07T12:30:36;102405.66;;;24.20;46.72
14293;BME280;62290;59.420;17.842;2023-09-07T12:33:04;102394.22;;;24.17;46.70
14293;BME280;62290;59.420;17.842;2023-09-07T12:35:32;102401.03;;;24.22;46.57
14293;BME280;62290;59.420;17.842;2023-09-07T12:38:00;102391.13;;;24.23;46.73
14293;BME280;62290;59.420;17.842;2023-09-07T12:40:31;102386.50;;;24.25;46.79
14293;BME280;62290;59.420;17.842;2023-09-07T12:43:02;102385.84;;;24.21;46.80
14293;BME280;62290;59.420;17.842;2023-09-07T12:45:30;102382.09;;;24.24;46.82
14293;BME280;62290;59.420;17.842;2023-09-07T12:47:58;102375.94;;;24.22;46.88
14293;BME280;62290;59.420;17.842;2023-09-07T12:50:27;102379.59;;;24.21;46.66
14293;BME280;62290;59.420;17.842;2023-09-07T12:52:55;102375.81;;;24.23;46.75